Disclaimer

Please do not use the information listed here in-flight or in-navigation, as they are not provided to us by the airports but are provided by volunteers, so they might be outdated.

Search


Regions


Airport information page

Radio informations:
TACNA APP/TWR - 118.4 MHz
TACNA RDO - 126.9 MHz

Airport informations:
Latitude: 18° 03' 12.00" S
Longitude: 070° 16' 33.00" W
Elevation: 1538 feet - 469 meters
Operating hours: N/A
Operating agency: Military-civil joint use airport
Timezone: UTC-5
Fuel: Jet A1, without icing nhibitor.

Runway information:
02/20 - 8202 x 148 feet< - >2500 x 45 meters

Recent METARs:
SPTN 172000Z 23011KT 9999 FEW030 SCT300 22/14 Q1013 RMK PP000
SPTN 172000Z 23011KT 9999 FEW030 SCT300 22/14 Q1013 RMK PP000
SPTN 172100Z 22010KT 9999 SCT030 SCT300 20/13 Q1013 RMK PP000

Airport on the map: